createdAt,value
2023-03-11T00:01:59.730Z,2.55
2023-03-11T00:04:26.542Z,2.08
2023-03-11T00:06:53.496Z,1.02
2023-03-11T00:09:20.285Z,1.63
2023-03-11T00:11:49.116Z,3.28
2023-03-11T00:14:17.371Z,2.03
2023-03-11T00:16:44.247Z,1.67
2023-03-11T00:19:11.129Z,1.63
2023-03-11T00:21:37.995Z,1.67
2023-03-11T00:24:08.187Z,2.47
2023-03-11T00:26:35.398Z,3.08
2023-03-11T00:29:03.833Z,3.55
2023-03-11T00:31:31.370Z,1.83
2023-03-11T00:33:58.326Z,1.65
2023-03-11T00:36:28.999Z,1.23
2023-03-11T00:38:55.860Z,1.67
2023-03-11T00:41:22.768Z,1.45
2023-03-11T00:43:49.705Z,1.50
2023-03-11T00:46:18.261Z,1.77
2023-03-11T00:48:45.506Z,0.90
2023-03-11T00:51:14.905Z,2.05
2023-03-11T00:53:41.935Z,2.15
2023-03-11T00:56:10.367Z,2.75
2023-03-11T00:58:38.902Z,0.93
2023-03-11T01:01:08.498Z,2.63
2023-03-11T01:03:39.373Z,2.67
2023-03-11T01:06:06.807Z,1.52
2023-03-11T01:08:33.787Z,5.00
2023-03-11T01:11:00.756Z,6.32
2023-03-11T01:13:29.772Z,6.15
2023-03-11T01:15:57.216Z,3.80
2023-03-11T01:18:24.973Z,4.70
2023-03-11T01:21:00.359Z,4.55
2023-03-11T01:23:27.345Z,2.70
2023-03-11T01:25:54.536Z,1.55
2023-03-11T01:28:21.426Z,2.17
2023-03-11T01:30:48.443Z,1.60
2023-03-11T01:33:18.235Z,1.05
2023-03-11T01:35:46.302Z,1.65
2023-03-11T01:38:15.644Z,3.92
2023-03-11T01:40:44.384Z,2.25
2023-03-11T01:43:48.070Z,0.65
2023-03-11T01:46:17.803Z,1.30
2023-03-11T01:48:49.552Z,2.95
2023-03-11T01:51:22.608Z,1.50
2023-03-11T01:53:51.710Z,1.10
2023-03-11T01:56:19.051Z,1.85
2023-03-11T01:58:50.037Z,1.02
2023-03-11T02:01:17.012Z,1.90
2023-03-11T02:03:43.860Z,2.65
2023-03-11T02:06:14.203Z,1.00
2023-03-11T02:08:43.706Z,1.77
2023-03-11T02:11:16.917Z,1.30
2023-03-11T02:13:45.495Z,1.52
2023-03-11T02:16:14.148Z,2.55
2023-03-11T02:18:42.786Z,1.08
2023-03-11T02:21:23.041Z,1.58
2023-03-11T02:23:57.844Z,0.93
2023-03-11T02:26:34.946Z,0.93
2023-03-11T02:29:06.980Z,1.27
2023-03-11T02:31:37.058Z,1.70
2023-03-11T02:34:08.815Z,1.50
2023-03-11T02:36:37.801Z,1.27
2023-03-11T02:39:05.419Z,2.55
2023-03-11T02:41:50.981Z,2.08
2023-03-11T02:44:19.125Z,1.10
2023-03-11T02:46:46.445Z,1.90
2023-03-11T02:49:14.852Z,1.38
2023-03-11T02:51:41.924Z,1.48
2023-03-11T02:54:08.876Z,1.70
2023-03-11T02:56:35.706Z,0.88
2023-03-11T02:59:02.596Z,1.83
2023-03-11T03:01:31.125Z,1.27
2023-03-11T03:03:58.033Z,2.22
2023-03-11T03:06:25.220Z,1.20
2023-03-11T03:08:52.228Z,2.58
2023-03-11T03:11:18.919Z,3.15
2023-03-11T03:13:54.781Z,2.20
2023-03-11T03:16:21.573Z,2.33
2023-03-11T03:18:50.192Z,1.50
2023-03-11T03:21:17.138Z,1.00
2023-03-11T03:23:43.866Z,2.05
2023-03-11T03:26:12.909Z,1.25
2023-03-11T03:28:39.758Z,1.77
2023-03-11T03:31:08.926Z,1.77
2023-03-11T03:33:35.857Z,3.20
2023-03-11T03:36:08.604Z,1.50
2023-03-11T03:38:35.469Z,1.45
2023-03-11T03:41:02.213Z,1.45
2023-03-11T03:43:29.022Z,3.05
2023-03-11T03:45:57.249Z,3.47
2023-03-11T03:48:24.245Z,1.65
2023-03-11T03:50:51.235Z,1.85
2023-03-11T03:53:19.458Z,1.98
2023-03-11T03:55:50.930Z,3.47
2023-03-11T03:58:19.271Z,4.03
2023-03-11T04:00:46.142Z,3.15
2023-03-11T04:03:13.105Z,3.47
2023-03-11T04:05:40.114Z,3.10
2023-03-11T04:08:06.847Z,1.77
2023-03-11T04:10:35.072Z,3.25
2023-03-11T04:13:02.114Z,2.70
2023-03-11T04:15:28.889Z,2.65
2023-03-11T04:17:55.809Z,1.65
2023-03-11T04:20:22.990Z,2.40
2023-03-11T04:22:49.821Z,2.10
2023-03-11T04:25:16.640Z,3.38
2023-03-11T04:27:46.186Z,1.10
2023-03-11T04:30:13.706Z,3.55
2023-03-11T04:32:40.772Z,2.10
2023-03-11T04:35:08.265Z,1.08
2023-03-11T04:37:35.229Z,3.15
2023-03-11T04:40:02.002Z,1.38
2023-03-11T04:42:28.705Z,1.65
2023-03-11T04:44:57.192Z,1.92
2023-03-11T04:47:24.299Z,1.10
2023-03-11T04:49:51.545Z,0.75
2023-03-11T04:52:18.652Z,1.63
2023-03-11T04:54:45.461Z,1.35
2023-03-11T04:57:12.408Z,1.25
2023-03-11T04:59:41.227Z,1.70
2023-03-11T05:02:11.725Z,1.08
2023-03-11T05:04:39.739Z,1.20
2023-03-11T05:07:09.680Z,1.20
2023-03-11T05:09:36.563Z,1.33
2023-03-11T05:12:04.552Z,1.58
2023-03-11T05:14:31.423Z,0.85
2023-03-11T05:16:58.210Z,1.25
2023-03-11T05:19:32.312Z,1.17
2023-03-11T05:21:59.292Z,2.28
2023-03-11T05:24:26.389Z,1.48
2023-03-11T05:26:53.284Z,1.42
2023-03-11T05:29:20.901Z,2.28
2023-03-11T05:31:48.362Z,1.50
2023-03-11T05:34:15.905Z,0.65
2023-03-11T05:36:44.302Z,1.23
2023-03-11T05:39:11.609Z,0.82
2023-03-11T05:41:38.610Z,0.85
2023-03-11T05:44:05.890Z,0.85
2023-03-11T05:46:33.206Z,0.82
2023-03-11T05:49:00.261Z,1.65
2023-03-11T05:51:27.374Z,0.82
2023-03-11T05:53:57.298Z,1.75
2023-03-11T05:56:24.411Z,2.95
2023-03-11T05:58:51.179Z,1.25
2023-03-11T06:01:19.565Z,2.33
2023-03-11T06:03:46.522Z,0.80
2023-03-11T06:06:13.836Z,2.78
2023-03-11T06:08:46.018Z,1.63
2023-03-11T06:11:14.389Z,1.00
2023-03-11T06:13:41.488Z,1.88
2023-03-11T06:16:08.962Z,1.33
2023-03-11T06:18:35.781Z,1.85
2023-03-11T06:21:03.748Z,2.30
2023-03-11T06:23:30.935Z,1.25
2023-03-11T06:25:58.234Z,2.67
2023-03-11T06:28:27.122Z,1.90
2023-03-11T06:30:56.753Z,1.48
2023-03-11T06:33:24.115Z,1.75
2023-03-11T06:35:58.292Z,1.65
2023-03-11T06:38:25.178Z,1.95
2023-03-11T06:40:52.697Z,0.93
2023-03-11T06:43:21.374Z,1.20
2023-03-11T06:45:52.821Z,0.95
2023-03-11T06:48:20.577Z,2.92
2023-03-11T06:50:54.311Z,1.48
2023-03-11T06:53:21.244Z,1.23
2023-03-11T06:55:58.228Z,4.28
2023-03-11T06:58:25.115Z,0.85
2023-03-11T07:00:53.535Z,2.63
2023-03-11T07:03:20.423Z,1.55
2023-03-11T07:05:51.441Z,2.83
2023-03-11T07:08:18.928Z,3.63
2023-03-11T07:10:46.091Z,5.40
2023-03-11T07:13:13.012Z,1.45
2023-03-11T07:15:42.239Z,1.10
2023-03-11T07:18:10.315Z,1.27
2023-03-11T07:20:37.155Z,1.38
2023-03-11T07:23:04.025Z,1.40
2023-03-11T07:25:30.969Z,2.80
2023-03-11T07:27:57.683Z,1.73
2023-03-11T07:30:24.391Z,1.02
2023-03-11T07:32:51.085Z,1.88
2023-03-11T07:35:19.339Z,1.08
2023-03-11T07:37:46.084Z,1.45
2023-03-11T07:40:13.614Z,2.13
2023-03-11T07:42:40.583Z,1.30
2023-03-11T07:45:08.708Z,1.55
2023-03-11T07:47:35.415Z,0.75
2023-03-11T07:50:02.204Z,2.20
2023-03-11T07:52:32.415Z,2.50
2023-03-11T07:54:59.317Z,3.45
2023-03-11T07:57:26.400Z,1.77
2023-03-11T07:59:53.221Z,1.17
2023-03-11T08:02:20.156Z,1.85
2023-03-11T08:04:46.912Z,2.17
2023-03-11T08:07:15.007Z,1.15
2023-03-11T08:09:45.642Z,2.28
2023-03-11T08:12:12.676Z,0.90
2023-03-11T08:14:39.798Z,0.80
2023-03-11T08:17:06.790Z,1.23
2023-03-11T08:19:33.866Z,1.02
2023-03-11T08:22:02.227Z,1.00
2023-03-11T08:24:29.312Z,2.08
2023-03-11T08:26:57.519Z,3.05
2023-03-11T08:29:24.388Z,1.30
2023-03-11T08:31:51.279Z,1.85
2023-03-11T08:34:18.660Z,1.02
2023-03-11T08:36:45.835Z,2.13
2023-03-11T08:39:12.869Z,1.38
2023-03-11T08:41:39.742Z,1.58
2023-03-11T08:44:08.537Z,1.23
2023-03-11T08:46:37.352Z,1.15
2023-03-11T08:49:06.986Z,1.27
2023-03-11T08:51:36.837Z,1.33
2023-03-11T08:54:04.247Z,1.98
2023-03-11T08:56:31.365Z,1.23
2023-03-11T08:58:58.344Z,0.45
2023-03-11T09:01:29.727Z,1.77
2023-03-11T09:03:56.637Z,0.63
2023-03-11T09:06:24.539Z,0.82
2023-03-11T09:08:51.715Z,1.00
2023-03-11T09:11:22.938Z,1.88
2023-03-11T09:13:50.652Z,0.93
2023-03-11T09:16:20.047Z,1.17
2023-03-11T09:18:48.464Z,3.97
2023-03-11T09:21:16.038Z,0.95
2023-03-11T09:23:44.462Z,0.85
2023-03-11T09:26:11.939Z,0.38
2023-03-11T09:28:39.573Z,1.30
2023-03-11T09:31:07.058Z,0.65
2023-03-11T09:33:37.584Z,0.63
2023-03-11T09:36:07.654Z,0.73
2023-03-11T09:38:36.593Z,0.73
2023-03-11T09:41:14.169Z,0.82
2023-03-11T09:43:51.531Z,1.08
2023-03-11T09:46:33.642Z,1.60
2023-03-11T09:49:12.899Z,1.50
2023-03-11T09:51:46.428Z,0.85
2023-03-11T09:54:14.042Z,0.80
2023-03-11T09:56:44.580Z,1.13
2023-03-11T09:59:18.482Z,0.98
2023-03-11T10:01:48.050Z,0.95
2023-03-11T10:04:27.281Z,0.80
2023-03-11T10:06:57.049Z,2.42
2023-03-11T10:09:33.983Z,0.70
2023-03-11T10:12:20.214Z,1.15
2023-03-11T10:15:12.995Z,0.60
2023-03-11T10:17:50.499Z,0.57
2023-03-11T10:20:22.989Z,1.33
2023-03-11T10:22:59.196Z,1.25
2023-03-11T10:25:30.487Z,2.30
2023-03-11T10:28:02.947Z,2.65
2023-03-11T10:30:36.595Z,3.15
2023-03-11T10:33:08.104Z,2.22
2023-03-11T10:35:39.712Z,2.28
2023-03-11T10:38:20.462Z,2.42
2023-03-11T10:40:48.436Z,3.47
2023-03-11T10:43:22.213Z,1.00
2023-03-11T10:45:51.684Z,2.20
2023-03-11T10:48:20.295Z,1.17
2023-03-11T10:50:55.014Z,2.80
2023-03-11T10:53:29.218Z,4.07
2023-03-11T10:55:59.321Z,3.25
2023-03-11T10:58:28.472Z,2.92
2023-03-11T11:01:08.147Z,4.10
2023-03-11T11:03:37.727Z,2.33
2023-03-11T11:06:06.774Z,2.70
2023-03-11T11:08:35.352Z,2.20
2023-03-11T11:11:03.851Z,0.98
2023-03-11T11:13:34.937Z,1.98
2023-03-11T11:16:03.620Z,2.35
2023-03-11T11:18:34.149Z,2.17
2023-03-11T11:21:04.544Z,1.55
2023-03-11T11:23:37.297Z,1.63
2023-03-11T11:26:07.539Z,3.13
2023-03-11T11:28:34.648Z,1.40
2023-03-11T11:31:03.926Z,1.27
2023-03-11T11:33:35.494Z,0.50
2023-03-11T11:36:04.866Z,1.00
2023-03-11T11:38:33.134Z,1.10
2023-03-11T11:41:04.920Z,1.58
2023-03-11T11:43:46.648Z,2.50
2023-03-11T11:46:21.289Z,0.90
2023-03-11T11:48:57.037Z,2.10
2023-03-11T11:51:30.734Z,0.73
2023-03-11T11:54:01.177Z,3.83
2023-03-11T11:56:29.485Z,5.55
2023-03-11T11:58:56.203Z,3.95
2023-03-11T12:01:34.971Z,4.32
2023-03-11T12:04:20.165Z,4.22
2023-03-11T12:06:54.236Z,4.60
2023-03-11T12:09:28.712Z,3.88
2023-03-11T12:12:02.213Z,3.90
2023-03-11T12:14:37.027Z,4.13
2023-03-11T12:17:05.147Z,1.95
2023-03-11T12:19:40.808Z,2.08
2023-03-11T12:22:44.132Z,1.70
2023-03-11T12:25:29.021Z,2.00
2023-03-11T12:28:06.495Z,1.58
2023-03-11T12:30:36.803Z,0.98
2023-03-11T12:33:07.151Z,2.72
2023-03-11T12:35:35.709Z,1.23
2023-03-11T12:38:07.993Z,0.85
2023-03-11T12:41:01.761Z,2.60
2023-03-11T12:44:00.653Z,1.20
2023-03-11T12:47:12.957Z,1.55
2023-03-11T12:49:41.370Z,1.02
2023-03-11T12:52:23.076Z,1.13
2023-03-11T12:55:10.743Z,0.98
2023-03-11T12:57:50.980Z,0.70
2023-03-11T13:00:27.378Z,2.15
2023-03-11T13:03:21.788Z,1.88
2023-03-11T13:05:57.317Z,0.93
2023-03-11T13:08:27.286Z,1.10
2023-03-11T13:10:55.184Z,2.72
2023-03-11T13:13:47.328Z,1.73
2023-03-11T13:16:36.782Z,0.40
2023-03-11T13:19:47.033Z,0.85
2023-03-11T13:22:42.606Z,0.82
2023-03-11T13:25:32.866Z,1.08
2023-03-11T13:28:24.342Z,1.42
2023-03-11T13:30:58.288Z,1.30
2023-03-11T13:33:48.133Z,1.48
2023-03-11T13:36:35.072Z,1.20
2023-03-11T13:39:43.698Z,1.23
2023-03-11T13:42:26.482Z,0.35
2023-03-11T13:44:53.634Z,0.75
2023-03-11T13:47:23.611Z,1.42
2023-03-11T13:49:53.965Z,0.55
2023-03-11T13:52:26.520Z,0.47
2023-03-11T13:54:59.699Z,0.85
2023-03-11T13:57:30.262Z,0.85
2023-03-11T13:59:58.100Z,1.40
2023-03-11T14:02:27.562Z,1.35
2023-03-11T14:04:58.201Z,1.73
2023-03-11T14:07:27.890Z,1.30
2023-03-11T14:10:31.500Z,1.00
2023-03-11T14:13:07.293Z,1.10
2023-03-11T14:15:43.962Z,2.47
2023-03-11T14:18:36.838Z,1.42
2023-03-11T14:21:05.995Z,2.58
2023-03-11T14:23:35.893Z,1.45
2023-03-11T14:26:08.715Z,1.23
2023-03-11T14:28:40.385Z,1.40
2023-03-11T14:31:07.150Z,2.72
2023-03-11T14:33:35.277Z,1.90
2023-03-11T14:36:04.701Z,1.88
2023-03-11T14:38:32.998Z,7.28
2023-03-11T14:41:01.482Z,6.85
2023-03-11T14:43:32.345Z,7.72
2023-03-11T14:46:00.297Z,7.85
2023-03-11T14:48:29.916Z,6.93
2023-03-11T14:51:00.815Z,5.97
2023-03-11T14:53:33.000Z,5.53
2023-03-11T14:56:05.016Z,8.18
2023-03-11T14:58:37.197Z,5.28
2023-03-11T15:01:10.943Z,4.93
2023-03-11T15:03:41.325Z,4.38
2023-03-11T15:06:14.903Z,5.60
2023-03-11T15:08:46.079Z,5.22
2023-03-11T15:11:22.005Z,3.75
2023-03-11T15:13:51.256Z,4.90
2023-03-11T15:16:29.405Z,1.83
2023-03-11T15:18:57.190Z,3.22
2023-03-11T15:21:25.619Z,3.97
2023-03-11T15:23:58.677Z,2.72
2023-03-11T15:26:28.590Z,2.33
2023-03-11T15:28:57.683Z,3.05
2023-03-11T15:31:32.071Z,6.13
2023-03-11T15:34:29.587Z,9.38
2023-03-11T15:37:20.642Z,11.07
2023-03-11T15:39:51.208Z,4.30
2023-03-11T15:42:21.423Z,3.33
2023-03-11T15:45:12.195Z,2.30
2023-03-11T15:47:39.807Z,5.13
2023-03-11T15:50:35.210Z,4.38
2023-03-11T15:53:08.451Z,2.78
2023-03-11T15:55:38.500Z,2.45
2023-03-11T15:58:08.048Z,2.50
2023-03-11T16:00:36.043Z,2.47
2023-03-11T16:03:04.093Z,2.00
2023-03-11T16:05:30.920Z,1.55
2023-03-11T16:07:57.629Z,1.25
2023-03-11T16:10:28.698Z,1.38
2023-03-11T16:12:56.049Z,1.58
2023-03-11T16:15:28.608Z,0.95
2023-03-11T16:17:57.316Z,2.75
2023-03-11T16:20:25.947Z,1.63
2023-03-11T16:22:54.732Z,1.48
2023-03-11T16:25:26.249Z,1.27
2023-03-11T16:27:56.090Z,1.20
2023-03-11T16:30:27.629Z,1.63
2023-03-11T16:32:54.686Z,0.73
2023-03-11T16:35:21.659Z,2.50
2023-03-11T16:37:48.732Z,0.70
2023-03-11T16:40:19.359Z,5.63
2023-03-11T16:42:47.284Z,1.08
2023-03-11T16:45:16.964Z,0.88
2023-03-11T16:47:43.865Z,1.25
2023-03-11T16:50:11.782Z,1.45
2023-03-11T16:52:38.950Z,1.67
2023-03-11T16:55:06.791Z,2.28
2023-03-11T16:57:33.725Z,1.80
2023-03-11T17:00:00.799Z,4.78
2023-03-11T17:02:29.090Z,3.22
2023-03-11T17:04:56.535Z,2.20
2023-03-11T17:07:24.209Z,2.45
2023-03-11T17:09:51.694Z,2.85
2023-03-11T17:12:19.259Z,1.35
2023-03-11T17:14:46.584Z,1.65
2023-03-11T17:17:13.388Z,3.13
2023-03-11T17:19:41.472Z,3.75
2023-03-11T17:22:08.536Z,4.00
2023-03-11T17:24:36.798Z,4.32
2023-03-11T17:27:04.192Z,3.08
2023-03-11T17:29:34.269Z,3.25
2023-03-11T17:32:01.219Z,3.45
2023-03-11T17:34:28.532Z,5.55
2023-03-11T17:37:00.608Z,6.03
2023-03-11T17:41:58.233Z,10.52
2023-03-11T17:44:25.089Z,9.82
2023-03-11T17:46:52.108Z,5.75
2023-03-11T17:49:18.910Z,6.38
2023-03-11T17:51:45.743Z,4.53
2023-03-11T17:54:14.021Z,5.32
2023-03-11T17:56:40.764Z,5.63
2023-03-11T17:59:07.588Z,4.32
2023-03-11T18:01:34.434Z,7.05
2023-03-11T18:04:03.058Z,3.47
2023-03-11T18:06:30.139Z,4.13
2023-03-11T18:08:56.862Z,3.78
2023-03-11T18:11:28.615Z,2.60
2023-03-11T18:13:55.876Z,2.65
2023-03-11T18:16:24.518Z,3.55
2023-03-11T18:18:52.312Z,5.55
2023-03-11T18:21:27.667Z,5.95
2023-03-11T18:23:56.056Z,5.47
2023-03-11T18:26:25.218Z,10.82
2023-03-11T18:28:56.092Z,13.02
2023-03-11T18:31:24.783Z,14.32
2023-03-11T18:33:53.836Z,16.20
2023-03-11T18:36:23.120Z,13.93
2023-03-11T18:38:50.618Z,17.88
2023-03-11T18:41:17.527Z,14.23
2023-03-11T18:43:44.638Z,14.82
2023-03-11T18:46:15.715Z,15.23
2023-03-11T18:48:42.626Z,14.75
2023-03-11T18:51:09.663Z,14.45
2023-03-11T18:53:37.123Z,13.05
2023-03-11T18:56:06.810Z,15.40
2023-03-11T18:58:34.207Z,15.25
2023-03-11T19:01:05.048Z,15.48
2023-03-11T19:03:35.785Z,15.10
2023-03-11T19:06:02.594Z,13.80
2023-03-11T19:08:29.534Z,14.82
2023-03-11T19:10:58.626Z,12.50
2023-03-11T19:13:37.117Z,13.43
2023-03-11T19:16:12.556Z,11.93
2023-03-11T19:18:41.585Z,15.90
2023-03-11T19:21:09.119Z,13.68
2023-03-11T19:23:35.998Z,16.23
2023-03-11T19:26:03.762Z,12.60
2023-03-11T19:28:30.611Z,14.45
2023-03-11T19:30:58.981Z,14.68
2023-03-11T19:33:26.935Z,13.45
2023-03-11T19:35:56.742Z,11.35
2023-03-11T19:38:24.363Z,12.23
2023-03-11T19:40:54.608Z,13.93
2023-03-11T19:43:21.879Z,9.35
2023-03-11T19:45:51.752Z,7.82
2023-03-11T19:48:20.049Z,6.47
2023-03-11T19:50:48.600Z,5.28
2023-03-11T19:53:19.770Z,5.88
2023-03-11T19:55:49.690Z,4.68
2023-03-11T19:58:16.636Z,4.72
2023-03-11T20:00:43.681Z,4.00
2023-03-11T20:03:11.566Z,4.68
2023-03-11T20:05:40.257Z,4.10
2023-03-11T20:08:07.786Z,5.05
2023-03-11T20:10:38.019Z,3.60
2023-03-11T20:13:05.491Z,4.50
2023-03-11T20:15:32.924Z,3.00
2023-03-11T20:18:01.131Z,3.55
2023-03-11T20:20:28.504Z,4.05
2023-03-11T20:22:55.477Z,3.83
2023-03-11T20:25:22.794Z,2.72
2023-03-11T20:27:51.132Z,3.13
2023-03-11T20:30:24.518Z,4.60
2023-03-11T20:32:51.645Z,3.63
2023-03-11T20:35:18.994Z,2.63
2023-03-11T20:37:46.396Z,2.97
2023-03-11T20:40:15.553Z,3.13
2023-03-11T20:42:46.746Z,3.53
2023-03-11T20:45:17.651Z,2.33
2023-03-11T20:47:44.763Z,3.53
2023-03-11T20:50:12.913Z,2.33
2023-03-11T20:52:40.129Z,3.83
2023-03-11T20:55:10.482Z,2.83
2023-03-11T20:57:37.785Z,3.92
2023-03-11T21:00:09.286Z,3.40
2023-03-11T21:02:37.833Z,3.78
2023-03-11T21:05:05.508Z,3.47
2023-03-11T21:07:32.608Z,3.28
2023-03-11T21:09:59.553Z,3.40
2023-03-11T21:12:26.453Z,4.30
2023-03-11T21:14:53.185Z,4.43
2023-03-11T21:17:20.083Z,3.05
2023-03-11T21:19:48.294Z,3.40
2023-03-11T21:22:15.121Z,4.60
2023-03-11T21:24:41.993Z,3.10
2023-03-11T21:27:08.745Z,3.58
2023-03-11T21:29:35.539Z,5.80
2023-03-11T21:32:02.484Z,4.13
2023-03-11T21:34:29.348Z,4.00
2023-03-11T21:36:57.610Z,4.20
2023-03-11T21:39:24.500Z,4.40
2023-03-11T21:41:53.280Z,3.25
2023-03-11T21:44:20.351Z,3.65
2023-03-11T21:46:47.204Z,5.72
2023-03-11T21:49:14.089Z,3.75
2023-03-11T21:51:40.867Z,3.50
2023-03-11T21:54:10.572Z,3.38
2023-03-11T21:56:37.630Z,3.78
2023-03-11T21:59:04.972Z,3.70
2023-03-11T22:01:31.846Z,3.55
2023-03-11T22:03:58.678Z,2.40
2023-03-11T22:06:25.722Z,3.92
2023-03-11T22:08:52.800Z,3.08
2023-03-11T22:11:20.967Z,3.22
2023-03-11T22:13:49.998Z,2.75
2023-03-11T22:16:17.257Z,3.70
2023-03-11T22:18:45.200Z,3.58
2023-03-11T22:21:15.185Z,2.90
2023-03-11T22:23:42.342Z,3.15
2023-03-11T22:26:09.984Z,3.88
2023-03-11T22:28:38.107Z,3.55
2023-03-11T22:31:08.671Z,3.38
2023-03-11T22:33:35.415Z,3.38
2023-03-11T22:36:04.377Z,3.67
2023-03-11T22:38:32.137Z,4.72
2023-03-11T22:41:00.392Z,4.55
2023-03-11T22:43:27.341Z,3.60
2023-03-11T22:45:57.272Z,3.90
2023-03-11T22:48:24.069Z,3.47
2023-03-11T22:50:50.839Z,4.15
2023-03-11T22:53:21.403Z,3.92
2023-03-11T22:55:48.337Z,4.32
2023-03-11T22:58:16.462Z,4.55
2023-03-11T23:00:57.294Z,4.78
2023-03-11T23:03:43.078Z,3.95
2023-03-11T23:06:45.237Z,5.60
2023-03-11T23:10:13.594Z,5.00
2023-03-11T23:12:18.979Z,5.03
2023-03-11T23:15:21.999Z,5.35
2023-03-11T23:19:13.890Z,3.92
2023-03-11T23:23:59.376Z,6.03
2023-03-11T23:26:29.386Z,4.50
2023-03-11T23:28:58.433Z,5.43
2023-03-11T23:31:26.548Z,4.07
2023-03-11T23:34:12.991Z,4.35
2023-03-11T23:36:43.772Z,4.28
2023-03-11T23:39:12.785Z,6.35
2023-03-11T23:41:41.086Z,4.32
2023-03-11T23:44:08.196Z,4.82
2023-03-11T23:46:35.180Z,4.20
2023-03-11T23:49:02.308Z,3.63
2023-03-11T23:51:29.315Z,3.55
2023-03-11T23:54:01.068Z,3.35
2023-03-11T23:56:28.170Z,4.13
2023-03-11T23:58:55.082Z,4.25
